Time;durP1;ratioP1;P1;durP2;ratioP2;P2;SDS_P1;SDS_P2;PMS_P1;PMS_P2;Temp;Humidity;BMP_temperature;BMP_pressure;BME280_temperature;BME280_humidity;BME280_pressure;Samples;Min_cycle;Max_cycle;Signal;HPM_P1;HPM_P2
2023/08/06 00:00:37;;;;;;;;;1.25;0.00;;;;;;;;4845685;29;45532;-64
2023/08/06 00:03:02;;;;;;;;;3.50;1.75;;;;;;;;4845803;29;46508;-64
2023/08/06 00:05:27;;;;;;;;;2.00;1.00;;;;;;;;4845669;29;45450;-65
2023/08/06 00:07:52;;;;;;;;;0.00;0.00;;;;;;;;4845522;29;45378;-64
2023/08/06 00:10:18;;;;;;;;;0.75;0.75;;;;;;;;4845382;29;45399;-64
2023/08/06 00:12:43;;;;;;;;;0.00;0.00;;;;;;;;4845411;29;46719;-64
2023/08/06 00:15:09;;;;;;;;;1.00;0.00;;;;;;;;4845523;29;45441;-64
2023/08/06 00:17:34;;;;;;;;;0.00;0.00;;;;;;;;4845660;29;45498;-64
2023/08/06 00:20:04;;;;;;;;;0.25;0.25;;;;;;;;4845441;29;45706;-64
2023/08/06 00:22:29;;;;;;;;;1.50;0.00;;;;;;;;4845369;29;46834;-64
2023/08/06 00:24:57;;;;;;;;;1.00;1.00;;;;;;;;4845494;29;45537;-64
2023/08/06 00:27:22;;;;;;;;;0.25;0.25;;;;;;;;4845602;29;45419;-64
2023/08/06 00:29:47;;;;;;;;;0.00;0.00;;;;;;;;4845229;29;45342;-63
2023/08/06 00:32:12;;;;;;;;;3.00;0.00;;;;;;;;4845037;29;46818;-64
2023/08/06 00:34:38;;;;;;;;;2.00;0.00;;;;;;;;4845178;29;45432;-64
2023/08/06 00:37:03;;;;;;;;;1.75;1.00;;;;;;;;4845163;29;45406;-64
2023/08/06 00:39:28;;;;;;;;;1.00;0.00;;;;;;;;4845766;29;45419;-64
2023/08/06 00:41:54;;;;;;;;;2.25;1.00;;;;;;;;4844684;29;45504;-64
2023/08/06 00:44:19;;;;;;;;;0.00;0.00;;;;;;;;4845038;29;45441;-64
2023/08/06 00:46:44;;;;;;;;;0.25;0.25;;;;;;;;4845147;29;45513;-65
2023/08/06 00:49:10;;;;;;;;;1.00;1.00;;;;;;;;4845448;29;45350;-65
2023/08/06 00:51:35;;;;;;;;;4.00;1.50;;;;;;;;4844635;29;45438;-64
2023/08/06 00:54:01;;;;;;;;;3.00;0.75;;;;;;;;4845008;29;45452;-64
2023/08/06 00:56:26;;;;;;;;;2.00;1.00;;;;;;;;4845162;29;45357;-64
2023/08/06 00:58:52;;;;;;;;;2.00;1.00;;;;;;;;4844164;29;45220;-64
2023/08/06 01:01:17;;;;;;;;;2.00;2.00;;;;;;;;4844141;29;45531;-64
2023/08/06 01:03:42;;;;;;;;;1.25;1.25;;;;;;;;4844908;29;45403;-64
2023/08/06 01:06:07;;;;;;;;;2.00;1.00;;;;;;;;4844846;29;45164;-65
2023/08/06 01:08:33;;;;;;;;;2.25;2.25;;;;;;;;4845178;29;45319;-64
2023/08/06 01:11:16;;;;;;;;;3.00;3.00;;;;;;;;4844827;29;46686;-64
2023/08/06 01:13:42;;;;;;;;;2.75;2.75;;;;;;;;4844336;29;45232;-64
2023/08/06 01:16:09;;;;;;;;;2.25;1.50;;;;;;;;4844271;29;45502;-64
2023/08/06 01:18:34;;;;;;;;;5.50;1.75;;;;;;;;4845177;29;45441;-65
2023/08/06 01:20:59;;;;;;;;;4.25;4.00;;;;;;;;4844539;29;47126;-65
2023/08/06 01:23:25;;;;;;;;;2.75;2.00;;;;;;;;4844455;29;45255;-65
2023/08/06 01:26:02;;;;;;;;;5.00;1.75;;;;;;;;4844694;29;45370;-65
2023/08/06 01:28:27;;;;;;;;;2.25;2.25;;;;;;;;4844770;29;45414;-65
2023/08/06 01:30:55;;;;;;;;;3.25;3.25;;;;;;;;4844367;29;46421;-65
2023/08/06 01:33:21;;;;;;;;;1.00;1.00;;;;;;;;4853984;29;45803;-65
2023/08/06 01:35:47;;;;;;;;;3.50;2.00;;;;;;;;4863235;29;45300;-65
2023/08/06 01:38:12;;;;;;;;;4.00;2.00;;;;;;;;4862576;29;45370;-65
2023/08/06 01:40:37;;;;;;;;;1.25;1.00;;;;;;;;4862550;29;46250;-65
2023/08/06 01:43:03;;;;;;;;;2.75;1.00;;;;;;;;4862511;29;45550;-64
2023/08/06 01:45:28;;;;;;;;;4.75;3.25;;;;;;;;4862919;29;45392;-65
2023/08/06 01:47:53;;;;;;;;;1.25;1.25;;;;;;;;4861861;29;45440;-65
2023/08/06 01:50:18;;;;;;;;;2.25;1.50;;;;;;;;4862548;29;46374;-65
2023/08/06 01:52:43;;;;;;;;;0.75;0.75;;;;;;;;4847688;29;45331;-64
2023/08/06 01:55:09;;;;;;;;;2.50;2.50;;;;;;;;4844008;29;45293;-65
2023/08/06 01:57:34;;;;;;;;;4.25;2.50;;;;;;;;4843654;29;45414;-65
2023/08/06 01:59:59;;;;;;;;;1.00;1.00;;;;;;;;4843405;29;46743;-64
2023/08/06 02:02:24;;;;;;;;;1.25;1.25;;;;;;;;4847181;29;45452;-64
2023/08/06 02:04:49;;;;;;;;;2.00;2.00;;;;;;;;4843588;29;45566;-64
2023/08/06 02:07:15;;;;;;;;;2.75;1.00;;;;;;;;4844252;29;45292;-65
2023/08/06 02:09:40;;;;;;;;;3.75;1.50;;;;;;;;4843310;29;46506;-64
2023/08/06 02:12:05;;;;;;;;;1.25;1.25;;;;;;;;4844640;29;45224;-66
2023/08/06 02:14:31;;;;;;;;;3.25;2.00;;;;;;;;4846632;29;45501;-62
2023/08/06 02:16:56;;;;;;;;;2.00;2.00;;;;;;;;4846012;29;45437;-63
2023/08/06 02:19:21;;;;;;;;;3.00;2.00;;;;;;;;4846365;29;47437;-63
2023/08/06 02:21:46;;;;;;;;;3.00;1.50;;;;;;;;4846636;29;45434;-63
2023/08/06 02:24:11;;;;;;;;;0.50;0.50;;;;;;;;4846355;29;45543;-62
2023/08/06 02:26:37;;;;;;;;;1.75;1.75;;;;;;;;4846647;29;45379;-65
2023/08/06 02:29:02;;;;;;;;;2.25;1.00;;;;;;;;4846194;29;46357;-64
2023/08/06 02:31:27;;;;;;;;;2.00;2.00;;;;;;;;4846503;29;45352;-64
2023/08/06 02:33:53;;;;;;;;;2.25;1.75;;;;;;;;4846725;29;45469;-64
2023/08/06 02:36:18;;;;;;;;;3.00;2.00;;;;;;;;4845368;29;45594;-64
2023/08/06 02:38:44;;;;;;;;;2.00;2.00;;;;;;;;4846038;29;46674;-64
2023/08/06 02:41:09;;;;;;;;;2.00;2.00;;;;;;;;4846346;29;45248;-64
2023/08/06 02:43:34;;;;;;;;;3.75;1.25;;;;;;;;4846697;29;45428;-64
2023/08/06 02:45:59;;;;;;;;;5.25;1.00;;;;;;;;4846563;29;45582;-65
2023/08/06 02:48:25;;;;;;;;;4.50;2.25;;;;;;;;4846521;29;45785;-64
2023/08/06 02:50:50;;;;;;;;;3.25;3.00;;;;;;;;4846693;29;45369;-64
2023/08/06 02:53:16;;;;;;;;;5.00;2.50;;;;;;;;4846927;29;45374;-64
2023/08/06 02:55:46;;;;;;;;;3.00;1.75;;;;;;;;4847129;29;45410;-66
2023/08/06 02:58:11;;;;;;;;;5.50;3.00;;;;;;;;4845295;29;45391;-65
2023/08/06 03:00:36;;;;;;;;;4.00;4.00;;;;;;;;4846526;29;45389;-65
2023/08/06 03:03:01;;;;;;;;;4.00;3.00;;;;;;;;4830006;29;45431;-65
2023/08/06 03:05:27;;;;;;;;;6.25;3.25;;;;;;;;4846609;29;45390;-64
2023/08/06 03:07:52;;;;;;;;;6.25;4.00;;;;;;;;4845926;29;46988;-64
2023/08/06 03:10:18;;;;;;;;;5.75;3.00;;;;;;;;4846337;29;45334;-64
2023/08/06 03:12:43;;;;;;;;;6.25;4.00;;;;;;;;4846639;29;45407;-64
2023/08/06 03:15:08;;;;;;;;;5.50;4.00;;;;;;;;4846569;29;45404;-64
2023/08/06 03:17:34;;;;;;;;;6.50;4.75;;;;;;;;4845610;29;45235;-65
2023/08/06 03:19:59;;;;;;;;;5.75;3.00;;;;;;;;4846502;29;45245;-64
2023/08/06 03:22:24;;;;;;;;;8.50;4.25;;;;;;;;4845385;29;45324;-64
2023/08/06 03:24:50;;;;;;;;;7.50;3.50;;;;;;;;4846629;29;45481;-64
2023/08/06 03:27:15;;;;;;;;;4.00;4.00;;;;;;;;4848467;29;46375;-64
2023/08/06 03:29:40;;;;;;;;;4.50;2.75;;;;;;;;4854140;29;45384;-64
2023/08/06 03:32:06;;;;;;;;;3.00;3.00;;;;;;;;4846350;29;45438;-64
2023/08/06 03:34:31;;;;;;;;;3.50;3.50;;;;;;;;4846236;29;45384;-64
2023/08/06 03:36:56;;;;;;;;;9.25;4.25;;;;;;;;4846082;29;45731;-64
2023/08/06 03:39:21;;;;;;;;;1.75;1.75;;;;;;;;4845662;29;45277;-64
2023/08/06 03:41:47;;;;;;;;;8.75;3.75;;;;;;;;4846013;29;45221;-64
2023/08/06 03:44:12;;;;;;;;;4.00;4.00;;;;;;;;4846419;29;45348;-64
2023/08/06 03:46:37;;;;;;;;;5.00;2.25;;;;;;;;4845899;29;45447;-63
2023/08/06 03:49:02;;;;;;;;;4.25;3.00;;;;;;;;4845528;29;45400;-63
2023/08/06 03:51:28;;;;;;;;;12.00;4.75;;;;;;;;4845795;29;45285;-64
2023/08/06 03:53:53;;;;;;;;;40.00;34.33;;;;;;;;4846205;29;45370;-64
2023/08/06 03:56:18;;;;;;;;;9.00;3.25;;;;;;;;4845669;29;46448;-64
2023/08/06 03:58:43;;;;;;;;;3.50;3.50;;;;;;;;4845758;29;45437;-64
2023/08/06 04:01:08;;;;;;;;;3.00;3.00;;;;;;;;4845538;29;45495;-63
2023/08/06 04:03:34;;;;;;;;;2.50;2.50;;;;;;;;4845922;29;45394;-64
2023/08/06 04:05:59;;;;;;;;;0.75;0.75;;;;;;;;4845552;29;46455;-64
2023/08/06 04:08:24;;;;;;;;;5.00;3.00;;;;;;;;4845594;29;45522;-64
2023/08/06 04:10:50;;;;;;;;;11.00;3.00;;;;;;;;4845290;29;45266;-64
2023/08/06 04:13:16;;;;;;;;;4.50;4.50;;;;;;;;4846140;29;45438;-64
2023/08/06 04:15:41;;;;;;;;;3.75;3.75;;;;;;;;4845483;29;46659;-64
2023/08/06 04:18:06;;;;;;;;;6.00;4.00;;;;;;;;4845207;29;45536;-64
2023/08/06 04:20:31;;;;;;;;;3.50;3.00;;;;;;;;4845308;29;45435;-64
2023/08/06 04:22:57;;;;;;;;;4.75;3.00;;;;;;;;4845767;29;45471;-64
2023/08/06 04:25:23;;;;;;;;;3.75;2.25;;;;;;;;4845548;29;46313;-64
2023/08/06 04:27:48;;;;;;;;;4.00;3.00;;;;;;;;4845241;29;45359;-64
2023/08/06 04:30:13;;;;;;;;;3.00;3.00;;;;;;;;4845542;29;45319;-65
2023/08/06 04:32:39;;;;;;;;;7.00;4.50;;;;;;;;4845039;29;45612;-66
2023/08/06 04:35:04;;;;;;;;;3.75;3.75;;;;;;;;4845127;29;46586;-63
2023/08/06 04:37:29;;;;;;;;;4.00;3.00;;;;;;;;4845165;29;45402;-63
2023/08/06 04:39:54;;;;;;;;;4.75;2.00;;;;;;;;4845302;29;45427;-63
2023/08/06 04:42:20;;;;;;;;;4.25;2.00;;;;;;;;4845026;29;45756;-64
2023/08/06 04:44:45;;;;;;;;;4.50;2.75;;;;;;;;4845181;29;45550;-64
2023/08/06 04:47:10;;;;;;;;;2.00;1.75;;;;;;;;4844992;29;45431;-64
2023/08/06 04:49:35;;;;;;;;;2.50;1.75;;;;;;;;4845231;29;45603;-64
2023/08/06 04:52:00;;;;;;;;;4.50;2.50;;;;;;;;4844721;29;45483;-64
2023/08/06 04:54:26;;;;;;;;;3.00;3.00;;;;;;;;4845102;29;47307;-64
2023/08/06 04:56:51;;;;;;;;;1.75;0.25;;;;;;;;4844994;29;45372;-63
2023/08/06 04:59:16;;;;;;;;;4.25;3.00;;;;;;;;4845147;29;45354;-63
2023/08/06 05:01:41;;;;;;;;;3.50;3.00;;;;;;;;4845305;29;45334;-64
2023/08/06 05:04:06;;;;;;;;;3.00;2.25;;;;;;;;4844161;29;46741;-63
2023/08/06 05:06:32;;;;;;;;;5.75;3.00;;;;;;;;4844883;29;45384;-64
2023/08/06 05:08:57;;;;;;;;;4.25;2.50;;;;;;;;4844977;29;45296;-63
2023/08/06 05:11:23;;;;;;;;;2.00;2.00;;;;;;;;4850350;29;45447;-64
2023/08/06 05:13:49;;;;;;;;;8.00;4.75;;;;;;;;4858412;29;46849;-63
2023/08/06 05:16:14;;;;;;;;;5.75;3.75;;;;;;;;4863026;29;45395;-63
2023/08/06 05:18:39;;;;;;;;;3.50;2.50;;;;;;;;4863466;29;45529;-63
2023/08/06 05:21:04;;;;;;;;;2.75;2.25;;;;;;;;4863444;29;45342;-63
2023/08/06 05:23:29;;;;;;;;;1.50;1.50;;;;;;;;4862896;29;45493;-63
2023/08/06 05:25:55;;;;;;;;;6.75;3.00;;;;;;;;4863257;29;45409;-63
2023/08/06 05:28:20;;;;;;;;;1.75;1.25;;;;;;;;4862948;29;45359;-63
2023/08/06 05:30:45;;;;;;;;;2.50;2.00;;;;;;;;4860804;29;45418;-63
2023/08/06 05:33:10;;;;;;;;;2.50;2.50;;;;;;;;4862801;29;46141;-63
2023/08/06 05:35:35;;;;;;;;;2.50;2.25;;;;;;;;4862820;29;45510;-63
2023/08/06 05:38:01;;;;;;;;;7.75;1.75;;;;;;;;4862954;29;45457;-63
2023/08/06 05:40:26;;;;;;;;;3.00;2.00;;;;;;;;4863254;29;45198;-63
2023/08/06 05:42:53;;;;;;;;;3.75;3.00;;;;;;;;4862962;29;46755;-63
2023/08/06 05:45:19;;;;;;;;;7.50;1.75;;;;;;;;4849021;29;45573;-63
2023/08/06 05:47:44;;;;;;;;;3.25;2.50;;;;;;;;4844469;29;45346;-63
2023/08/06 05:50:09;;;;;;;;;2.50;2.50;;;;;;;;4844556;29;45439;-63
2023/08/06 05:52:34;;;;;;;;;3.00;3.00;;;;;;;;4843942;29;46452;-63
2023/08/06 05:55:00;;;;;;;;;1.75;1.75;;;;;;;;4843238;29;45296;-64
2023/08/06 05:57:25;;;;;;;;;3.00;2.00;;;;;;;;4844122;29;45384;-64
2023/08/06 05:59:50;;;;;;;;;8.50;2.00;;;;;;;;4844454;29;45317;-64
2023/08/06 06:02:16;;;;;;;;;9.25;2.75;;;;;;;;4843900;29;45410;-64
2023/08/06 06:04:41;;;;;;;;;2.25;1.75;;;;;;;;4843812;29;45509;-64
2023/08/06 06:07:06;;;;;;;;;2.50;2.50;;;;;;;;4843461;29;45489;-64
2023/08/06 06:09:31;;;;;;;;;2.75;1.50;;;;;;;;4844527;29;45362;-64
2023/08/06 06:11:57;;;;;;;;;3.75;2.50;;;;;;;;4844038;29;45441;-63
2023/08/06 06:14:22;;;;;;;;;3.75;2.00;;;;;;;;4843950;29;45560;-64
2023/08/06 06:16:47;;;;;;;;;4.00;2.00;;;;;;;;4843467;29;45363;-66
2023/08/06 06:19:12;;;;;;;;;1.00;1.00;;;;;;;;4841678;29;45743;-68
2023/08/06 06:21:38;;;;;;;;;5.00;3.50;;;;;;;;4843117;29;46377;-66
2023/08/06 06:24:04;;;;;;;;;3.75;1.75;;;;;;;;4843163;29;45384;-66
2023/08/06 06:26:29;;;;;;;;;2.00;2.00;;;;;;;;4842983;29;45531;-64
2023/08/06 06:28:54;;;;;;;;;2.50;2.00;;;;;;;;4843343;29;45793;-65
2023/08/06 06:31:20;;;;;;;;;2.00;2.00;;;;;;;;4843103;29;45596;-65
2023/08/06 06:33:45;;;;;;;;;2.75;2.75;;;;;;;;4843054;29;45177;-65
2023/08/06 06:36:10;;;;;;;;;2.00;2.00;;;;;;;;4843290;29;45252;-64
2023/08/06 06:38:35;;;;;;;;;3.75;2.25;;;;;;;;4842871;29;45231;-64
2023/08/06 06:41:03;;;;;;;;;3.00;1.00;;;;;;;;4843644;29;45375;-64
2023/08/06 06:43:28;;;;;;;;;4.75;3.50;;;;;;;;4843499;29;45530;-64
2023/08/06 06:45:55;;;;;;;;;21.67;9.33;;;;;;;;4843871;29;45349;-65
2023/08/06 06:48:20;;;;;;;;;3.75;2.00;;;;;;;;4840757;29;46417;-69
2023/08/06 06:50:48;;;;;;;;;8.00;2.75;;;;;;;;4842914;29;46611;-67
2023/08/06 06:53:14;;;;;;;;;3.00;2.25;;;;;;;;4842774;29;45345;-66
2023/08/06 06:55:39;;;;;;;;;3.25;2.00;;;;;;;;4843114;29;45354;-66
2023/08/06 06:58:04;;;;;;;;;3.25;2.50;;;;;;;;4844083;29;45408;-67
2023/08/06 07:00:30;;;;;;;;;2.50;2.00;;;;;;;;4845989;29;45614;-66
2023/08/06 07:02:55;;;;;;;;;4.50;1.25;;;;;;;;4845940;29;45358;-66
2023/08/06 07:05:20;;;;;;;;;3.25;2.00;;;;;;;;4845862;29;45479;-66
2023/08/06 07:07:45;;;;;;;;;1.00;1.00;;;;;;;;4845964;29;45396;-67
2023/08/06 07:10:11;;;;;;;;;4.00;2.75;;;;;;;;4851692;29;45454;-66
2023/08/06 07:12:36;;;;;;;;;2.75;2.75;;;;;;;;4860316;29;45268;-66
2023/08/06 07:15:02;;;;;;;;;3.00;2.00;;;;;;;;4849431;29;45660;-66
2023/08/06 07:17:28;;;;;;;;;4.00;3.00;;;;;;;;4845122;29;45523;-66
2023/08/06 07:19:53;;;;;;;;;6.25;5.00;;;;;;;;4844881;29;46876;-66
2023/08/06 07:22:18;;;;;;;;;3.25;2.25;;;;;;;;4845470;29;45382;-64
2023/08/06 07:24:43;;;;;;;;;3.75;2.00;;;;;;;;4845155;29;45422;-67
2023/08/06 07:27:08;;;;;;;;;2.00;2.00;;;;;;;;4845205;29;45681;-68
2023/08/06 07:29:34;;;;;;;;;2.00;2.00;;;;;;;;4844644;29;46716;-66
2023/08/06 07:31:59;;;;;;;;;1.75;1.25;;;;;;;;4845494;29;45700;-65
2023/08/06 07:34:25;;;;;;;;;0.00;0.00;;;;;;;;4845377;29;45387;-66
2023/08/06 07:36:50;;;;;;;;;2.00;1.25;;;;;;;;4845601;29;45445;-67
2023/08/06 07:39:16;;;;;;;;;3.25;2.00;;;;;;;;4845036;29;47026;-67
2023/08/06 07:41:41;;;;;;;;;1.75;1.75;;;;;;;;4844694;29;45475;-67
2023/08/06 07:44:07;;;;;;;;;1.00;1.00;;;;;;;;4845450;29;45383;-67
2023/08/06 07:46:32;;;;;;;;;1.00;1.00;;;;;;;;4845539;29;45394;-65
2023/08/06 07:48:57;;;;;;;;;2.00;2.00;;;;;;;;4844972;29;46399;-67
2023/08/06 07:51:22;;;;;;;;;3.50;1.00;;;;;;;;4844820;29;45338;-67
2023/08/06 07:53:47;;;;;;;;;3.00;1.00;;;;;;;;4845214;29;45345;-66
2023/08/06 07:56:13;;;;;;;;;5.00;2.00;;;;;;;;4845724;29;45474;-67
2023/08/06 07:58:38;;;;;;;;;1.75;1.75;;;;;;;;4845748;29;45255;-67
2023/08/06 08:01:03;;;;;;;;;3.50;1.00;;;;;;;;4845599;29;45485;-67
2023/08/06 08:03:28;;;;;;;;;1.50;0.75;;;;;;;;4845963;29;45211;-67
2023/08/06 08:05:56;;;;;;;;;1.25;1.25;;;;;;;;4846166;29;45499;-67
2023/08/06 08:08:21;;;;;;;;;0.00;0.00;;;;;;;;4844730;29;46618;-67
2023/08/06 08:10:47;;;;;;;;;0.00;0.00;;;;;;;;4845050;29;45471;-67
2023/08/06 08:13:13;;;;;;;;;4.00;2.00;;;;;;;;4845462;29;45357;-67
2023/08/06 08:15:38;;;;;;;;;3.00;2.75;;;;;;;;4845960;29;45420;-67
2023/08/06 08:18:03;;;;;;;;;1.00;1.00;;;;;;;;4845648;29;45604;-67
2023/08/06 08:20:31;;;;;;;;;1.25;1.25;;;;;;;;4845376;29;45316;-67
2023/08/06 08:22:57;;;;;;;;;3.75;2.00;;;;;;;;4845183;29;45401;-67
2023/08/06 08:25:22;;;;;;;;;1.75;1.00;;;;;;;;4845978;29;45277;-67
2023/08/06 08:27:47;;;;;;;;;2.00;1.00;;;;;;;;4845462;29;45408;-67
2023/08/06 08:30:12;;;;;;;;;2.75;2.00;;;;;;;;4845317;29;45391;-68
2023/08/06 08:32:38;;;;;;;;;4.00;2.00;;;;;;;;4845062;29;45393;-67
2023/08/06 08:35:03;;;;;;;;;2.00;2.00;;;;;;;;4845582;29;45804;-67
2023/08/06 08:37:28;;;;;;;;;4.25;3.00;;;;;;;;4845066;29;47310;-67
2023/08/06 08:39:53;;;;;;;;;3.75;2.00;;;;;;;;4845292;29;45215;-66
2023/08/06 08:42:19;;;;;;;;;2.75;2.00;;;;;;;;4844925;29;45503;-67
2023/08/06 08:44:44;;;;;;;;;1.75;1.25;;;;;;;;4844701;29;45456;-67
2023/08/06 08:47:10;;;;;;;;;5.33;4.00;;;;;;;;4848787;29;46637;-67
2023/08/06 08:49:36;;;;;;;;;6.00;2.00;;;;;;;;4845098;29;45378;-63
2023/08/06 08:52:02;;;;;;;;;4.00;1.75;;;;;;;;4843869;29;45588;-64
2023/08/06 08:54:28;;;;;;;;;2.50;2.00;;;;;;;;4844084;29;45381;-65
2023/08/06 08:56:54;;;;;;;;;5.00;2.00;;;;;;;;4848031;29;45727;-64
2023/08/06 08:59:20;;;;;;;;;1.50;1.50;;;;;;;;4850496;29;45514;-66
2023/08/06 09:01:49;;;;;;;;;3.50;2.00;;;;;;;;4844705;29;45503;-66
2023/08/06 09:04:15;;;;;;;;;2.75;1.25;;;;;;;;4843050;29;45492;-66
2023/08/06 09:06:41;;;;;;;;;2.00;2.00;;;;;;;;4843846;29;45462;-66
2023/08/06 09:09:08;;;;;;;;;2.75;2.75;;;;;;;;4843295;29;45420;-66
2023/08/06 09:11:39;;;;;;;;;4.00;2.25;;;;;;;;4844856;29;45412;-66
2023/08/06 09:14:07;;;;;;;;;3.50;2.00;;;;;;;;4851617;29;46517;-65
2023/08/06 09:16:33;;;;;;;;;1.00;1.00;;;;;;;;4844719;29;46148;-67
2023/08/06 09:19:06;;;;;;;;;5.00;2.00;;;;;;;;4862674;29;45744;-67
2023/08/06 09:21:31;;;;;;;;;6.00;2.00;;;;;;;;4844175;29;45229;-64
2023/08/06 09:23:58;;;;;;;;;2.75;2.75;;;;;;;;4843865;29;45380;-64
2023/08/06 09:26:24;;;;;;;;;2.50;2.25;;;;;;;;4842826;29;46623;-66
2023/08/06 09:28:52;;;;;;;;;5.00;2.00;;;;;;;;4855935;29;45366;-65
2023/08/06 09:31:17;;;;;;;;;6.75;2.75;;;;;;;;4854467;29;47002;-64
2023/08/06 09:33:44;;;;;;;;;2.50;1.25;;;;;;;;4846431;29;45477;-66
2023/08/06 09:36:12;;;;;;;;;5.00;2.00;;;;;;;;4842516;29;45431;-65
2023/08/06 09:38:39;;;;;;;;;5.50;3.25;;;;;;;;4843180;29;45462;-69
2023/08/06 09:41:05;;;;;;;;;6.00;1.25;;;;;;;;4843407;29;45294;-66
2023/08/06 09:43:30;;;;;;;;;5.25;2.25;;;;;;;;4843966;29;45454;-66
2023/08/06 09:45:56;;;;;;;;;5.00;2.00;;;;;;;;4843033;29;46491;-67
2023/08/06 09:48:24;;;;;;;;;12.00;9.67;;;;;;;;4842819;29;45478;-68
2023/08/06 09:50:52;;;;;;;;;24.00;22.00;;;;;;;;4843540;29;45528;-69
2023/08/06 09:53:19;;;;;;;;;5.75;4.50;;;;;;;;4851787;29;45369;-65
2023/08/06 09:55:45;;;;;;;;;5.75;4.75;;;;;;;;4843332;29;45758;-65
2023/08/06 09:58:10;;;;;;;;;9.00;8.00;;;;;;;;4842450;29;45840;-66
2023/08/06 10:00:36;;;;;;;;;4.00;4.00;;;;;;;;4843196;29;45442;-66
2023/08/06 10:03:02;;;;;;;;;5.25;3.75;;;;;;;;4843538;29;45419;-63
2023/08/06 10:05:27;;;;;;;;;20.00;17.67;;;;;;;;4843193;29;46151;-62
2023/08/06 10:07:52;;;;;;;;;4.00;4.00;;;;;;;;4842919;29;45731;-67
2023/08/06 10:10:19;;;;;;;;;2.25;2.25;;;;;;;;4842630;29;45439;-62
2023/08/06 10:12:49;;;;;;;;;3.50;2.75;;;;;;;;4842953;29;45163;-63
2023/08/06 10:15:16;;;;;;;;;3.00;3.00;;;;;;;;4842177;29;46486;-62
2023/08/06 10:17:42;;;;;;;;;3.50;3.50;;;;;;;;4842663;29;45449;-61
2023/08/06 10:20:07;;;;;;;;;4.00;4.00;;;;;;;;4842805;29;45374;-62
2023/08/06 10:22:33;;;;;;;;;4.25;4.00;;;;;;;;4843024;29;45385;-62
2023/08/06 10:25:07;;;;;;;;;6.33;4.00;;;;;;;;4842902;29;45646;-64
2023/08/06 10:27:33;;;;;;;;;11.33;8.00;;;;;;;;4842763;29;45425;-62
2023/08/06 10:30:17;;;;;;;;;10.00;7.00;;;;;;;;4848206;29;45383;-63
2023/08/06 10:32:49;;;;;;;;;5.00;5.00;;;;;;;;4844890;29;45458;-67
2023/08/06 10:35:32;;;;;;;;;2.00;1.00;;;;;;;;4845466;29;46252;-69
2023/08/06 10:37:58;;;;;;;;;6.00;6.00;;;;;;;;4845713;29;45498;-64
2023/08/06 10:40:24;;;;;;;;;7.25;4.25;;;;;;;;4845577;29;45730;-66
2023/08/06 10:42:49;;;;;;;;;5.00;5.00;;;;;;;;4846399;29;45406;-65
2023/08/06 10:45:15;;;;;;;;;9.67;8.00;;;;;;;;4845949;29;45471;-67
2023/08/06 10:47:41;;;;;;;;;5.33;5.33;;;;;;;;4846032;29;45395;-67
2023/08/06 10:50:07;;;;;;;;;7.00;6.00;;;;;;;;4845168;29;45357;-67
2023/08/06 10:52:33;;;;;;;;;6.75;3.50;;;;;;;;4844096;29;45843;-67
2023/08/06 10:54:58;;;;;;;;;16.00;13.00;;;;;;;;4849279;29;46431;-67
2023/08/06 10:57:23;;;;;;;;;12.00;12.00;;;;;;;;4845834;29;45289;-67
2023/08/06 10:59:49;;;;;;;;;13.00;7.33;;;;;;;;4846008;29;45396;-67
2023/08/06 11:02:14;;;;;;;;;11.75;10.50;;;;;;;;4846691;29;45455;-67
2023/08/06 11:04:40;;;;;;;;;7.25;7.25;;;;;;;;4845837;29;45588;-67
2023/08/06 11:07:06;;;;;;;;;11.75;6.75;;;;;;;;4845799;29;45504;-67
2023/08/06 11:09:32;;;;;;;;;6.25;6.00;;;;;;;;4847622;29;45335;-66
2023/08/06 11:11:57;;;;;;;;;6.00;4.00;;;;;;;;4846245;29;45415;-67
2023/08/06 11:14:22;;;;;;;;;3.00;3.00;;;;;;;;4846239;29;46353;-67
2023/08/06 11:16:47;;;;;;;;;3.25;3.00;;;;;;;;4844973;29;45586;-66
2023/08/06 11:19:15;;;;;;;;;6.00;3.00;;;;;;;;4846147;29;45527;-67
2023/08/06 11:21:40;;;;;;;;;4.00;2.50;;;;;;;;4846007;29;45422;-67
2023/08/06 11:24:05;;;;;;;;;3.75;3.00;;;;;;;;4846084;29;46375;-67
2023/08/06 11:26:31;;;;;;;;;3.00;2.00;;;;;;;;4846322;29;45670;-65
2023/08/06 11:28:56;;;;;;;;;4.00;3.00;;;;;;;;4844438;29;45392;-67
2023/08/06 11:31:22;;;;;;;;;4.00;1.50;;;;;;;;4861255;29;45323;-66
2023/08/06 11:33:49;;;;;;;;;5.67;5.67;;;;;;;;4854878;29;45916;-66
2023/08/06 11:36:14;;;;;;;;;4.75;3.00;;;;;;;;4845729;29;45234;-66
2023/08/06 11:38:40;;;;;;;;;4.00;4.00;;;;;;;;4843691;29;45388;-61
2023/08/06 11:41:06;;;;;;;;;3.00;2.25;;;;;;;;4844918;29;45256;-65
2023/08/06 11:43:32;;;;;;;;;2.50;2.50;;;;;;;;4844122;29;46544;-65
2023/08/06 11:46:00;;;;;;;;;3.25;2.00;;;;;;;;4845059;29;45401;-66
2023/08/06 11:48:25;;;;;;;;;5.00;2.00;;;;;;;;4845310;29;45305;-68
2023/08/06 11:50:53;;;;;;;;;4.00;1.25;;;;;;;;4845475;29;45379;-71
2023/08/06 11:53:19;;;;;;;;;3.50;2.00;;;;;;;;4844612;29;46432;-72
2023/08/06 11:55:44;;;;;;;;;3.00;1.75;;;;;;;;4828602;29;45672;-71
2023/08/06 11:58:10;;;;;;;;;1.75;1.75;;;;;;;;4844964;29;45377;-71
2023/08/06 12:00:36;;;;;;;;;5.25;3.25;;;;;;;;4845075;29;45545;-73
2023/08/06 12:03:01;;;;;;;;;1.50;1.50;;;;;;;;4844674;29;46309;-72
2023/08/06 12:05:31;;;;;;;;;3.75;1.50;;;;;;;;4842275;29;45438;-66
2023/08/06 12:07:57;;;;;;;;;1.25;1.25;;;;;;;;4844834;29;45843;-71
2023/08/06 12:10:24;;;;;;;;;2.00;2.00;;;;;;;;4844918;29;45456;-65
2023/08/06 12:12:49;;;;;;;;;2.00;1.00;;;;;;;;4844501;29;47285;-63
2023/08/06 12:15:15;;;;;;;;;2.00;2.00;;;;;;;;4844826;29;45236;-60
2023/08/06 12:17:40;;;;;;;;;2.00;2.00;;;;;;;;4844906;29;45470;-62
2023/08/06 12:20:06;;;;;;;;;1.00;1.00;;;;;;;;4845011;29;45327;-65
2023/08/06 12:22:34;;;;;;;;;1.00;1.00;;;;;;;;4844599;29;47259;-67
2023/08/06 12:25:00;;;;;;;;;2.00;2.00;;;;;;;;4844552;29;45655;-64
2023/08/06 12:27:25;;;;;;;;;2.00;2.00;;;;;;;;4844498;29;45268;-65
2023/08/06 12:29:50;;;;;;;;;5.25;3.00;;;;;;;;4844917;29;45246;-65
2023/08/06 12:32:16;;;;;;;;;5.00;5.00;;;;;;;;4844545;29;46617;-65
2023/08/06 12:34:42;;;;;;;;;2.00;2.00;;;;;;;;4844159;29;45396;-65
2023/08/06 12:37:08;;;;;;;;;2.00;2.00;;;;;;;;4844503;29;45766;-65
2023/08/06 12:39:33;;;;;;;;;3.75;1.50;;;;;;;;4826248;29;45439;-65
2023/08/06 12:41:59;;;;;;;;;1.00;1.00;;;;;;;;4826040;29;45546;-65
2023/08/06 12:44:24;;;;;;;;;2.50;1.75;;;;;;;;4842673;29;45692;-65
2023/08/06 12:46:50;;;;;;;;;1.00;1.00;;;;;;;;4844488;29;45485;-65
2023/08/06 12:49:15;;;;;;;;;3.00;2.00;;;;;;;;4844479;29;45439;-65
2023/08/06 12:51:41;;;;;;;;;1.50;1.50;;;;;;;;4843901;29;47462;-65
2023/08/06 12:54:06;;;;;;;;;4.00;4.00;;;;;;;;4843834;29;45726;-65
2023/08/06 12:56:31;;;;;;;;;2.50;2.00;;;;;;;;4843992;29;45354;-65
2023/08/06 12:58:56;;;;;;;;;3.00;2.00;;;;;;;;4843845;29;45389;-65
2023/08/06 13:01:21;;;;;;;;;2.75;2.50;;;;;;;;4843932;29;45338;-65
2023/08/06 13:03:49;;;;;;;;;6.00;5.00;;;;;;;;4843881;29;45579;-65
2023/08/06 13:06:14;;;;;;;;;5.75;2.75;;;;;;;;4843585;29;45443;-65
2023/08/06 13:08:39;;;;;;;;;3.50;3.00;;;;;;;;4843547;29;45428;-65
2023/08/06 13:11:05;;;;;;;;;5.00;4.00;;;;;;;;4843855;29;45481;-65
2023/08/06 13:13:30;;;;;;;;;5.75;4.25;;;;;;;;4843690;29;45693;-65
2023/08/06 13:15:55;;;;;;;;;4.75;3.50;;;;;;;;4843552;29;45391;-65
2023/08/06 13:18:20;;;;;;;;;2.25;1.25;;;;;;;;4843685;29;45763;-65
2023/08/06 13:20:46;;;;;;;;;3.75;2.25;;;;;;;;4843476;29;47652;-65
2023/08/06 13:23:15;;;;;;;;;1.50;1.00;;;;;;;;4843528;29;45263;-65
2023/08/06 13:25:40;;;;;;;;;1.00;1.00;;;;;;;;4843794;29;45398;-65
2023/08/06 13:28:06;;;;;;;;;3.50;1.50;;;;;;;;4843124;29;45478;-65
2023/08/06 13:30:31;;;;;;;;;1.75;1.75;;;;;;;;4843477;29;46230;-65
2023/08/06 13:32:56;;;;;;;;;3.67;2.00;;;;;;;;4843353;29;45349;-65
2023/08/06 13:35:22;;;;;;;;;3.00;3.00;;;;;;;;4843772;29;45701;-65
2023/08/06 13:37:48;;;;;;;;;6.33;4.00;;;;;;;;4843209;29;45398;-65
2023/08/06 13:40:13;;;;;;;;;1.00;1.00;;;;;;;;4843230;29;45489;-65
2023/08/06 13:42:38;;;;;;;;;1.50;1.50;;;;;;;;4843611;29;45460;-65
2023/08/06 13:45:04;;;;;;;;;6.00;4.67;;;;;;;;4843437;29;45599;-65
2023/08/06 13:47:29;;;;;;;;;4.75;3.25;;;;;;;;4843230;29;45690;-65
2023/08/06 13:49:54;;;;;;;;;8.33;5.33;;;;;;;;4843148;29;45641;-65
2023/08/06 13:52:20;;;;;;;;;5.00;3.00;;;;;;;;4842825;29;45501;-65
2023/08/06 13:54:46;;;;;;;;;2.00;2.00;;;;;;;;4843380;29;45513;-65
2023/08/06 13:57:11;;;;;;;;;2.00;2.00;;;;;;;;4843176;29;45686;-65
2023/08/06 13:59:36;;;;;;;;;5.00;2.25;;;;;;;;4842692;29;45480;-65
2023/08/06 14:02:01;;;;;;;;;3.00;1.50;;;;;;;;4843054;29;45467;-65
2023/08/06 14:04:27;;;;;;;;;2.00;2.00;;;;;;;;4843407;29;45332;-65
2023/08/06 14:06:52;;;;;;;;;4.00;2.75;;;;;;;;4844743;29;45348;-65
2023/08/06 14:09:18;;;;;;;;;1.00;1.00;;;;;;;;4845471;29;46010;-65
2023/08/06 14:11:43;;;;;;;;;1.25;1.25;;;;;;;;4846726;29;45156;-65
2023/08/06 14:14:09;;;;;;;;;2.50;2.50;;;;;;;;4845788;29;45613;-65
2023/08/06 14:16:34;;;;;;;;;1.50;1.50;;;;;;;;4846909;29;45259;-65
2023/08/06 14:18:59;;;;;;;;;3.00;2.00;;;;;;;;4845880;29;46449;-65
2023/08/06 14:21:24;;;;;;;;;1.00;1.00;;;;;;;;4847462;29;45375;-65
2023/08/06 14:23:49;;;;;;;;;3.00;3.00;;;;;;;;4847642;29;45392;-65
2023/08/06 14:26:15;;;;;;;;;1.00;1.00;;;;;;;;4847575;29;45445;-66
2023/08/06 14:28:40;;;;;;;;;2.50;1.00;;;;;;;;4847333;29;45252;-65
2023/08/06 14:31:05;;;;;;;;;1.00;1.00;;;;;;;;4846744;29;45311;-65
2023/08/06 14:33:30;;;;;;;;;1.00;1.00;;;;;;;;4847617;29;45953;-65